Time;durP1;ratioP1;P1;durP2;ratioP2;P2;SDS_P1;SDS_P2;PMS_P1;PMS_P2;Temp;Humidity;BMP_temperature;BMP_pressure;BME280_temperature;BME280_humidity;BME280_pressure;Samples;Min_cycle;Max_cycle;Signal;HPM_P1;HPM_P2
2022/04/12 00:00:06;;;;;;;25.60;14.53;;;1.10;99.90;;;;;;10313293;28;20188;-79
2022/04/12 00:05:38;;;;;;;29.80;15.40;;;1.00;99.90;;;;;;10358176;28;20203;-84
2022/04/12 00:10:59;;;;;;;24.90;14.87;;;1.00;99.90;;;;;;10374222;28;20250;-79
2022/04/12 00:16:21;;;;;;;27.93;14.33;;;0.90;99.90;;;;;;10280355;29;20406;-80
2022/04/12 00:21:42;;;;;;;23.50;13.70;;;0.90;99.90;;;;;;10298754;28;20287;-80
2022/04/12 00:27:03;;;;;;;28.50;15.73;;;0.90;99.90;;;;;;10293222;28;20196;-80
2022/04/12 00:32:25;;;;;;;28.77;15.40;;;0.80;99.90;;;;;;10293258;28;20216;-81
2022/04/12 00:37:47;;;;;;;27.70;14.70;;;0.70;99.90;;;;;;10333799;28;20248;-78
2022/04/12 00:43:08;;;;;;;24.67;13.43;;;0.70;99.90;;;;;;10318515;28;20484;-79
2022/04/12 00:48:30;;;;;;;20.83;11.93;;;0.60;99.90;;;;;;10318699;28;20203;-80
2022/04/12 00:53:52;;;;;;;20.50;11.73;;;0.60;99.90;;;;;;10304813;28;20236;-80
2022/04/12 00:59:14;;;;;;;21.67;12.10;;;0.60;99.90;;;;;;10319916;28;20191;-81
2022/04/12 01:04:35;;;;;;;21.37;13.07;;;0.60;99.90;;;;;;10353052;28;20231;-79
2022/04/12 01:09:57;;;;;;;19.83;11.93;;;0.60;99.90;;;;;;10361727;28;20195;-79
2022/04/12 01:15:21;;;;;;;19.73;11.90;;;0.50;99.90;;;;;;10320392;28;20588;-79
2022/04/12 01:20:42;;;;;;;26.80;12.30;;;0.50;99.90;;;;;;10333856;28;20203;-80
2022/04/12 01:26:05;;;;;;;24.17;13.27;;;0.50;99.90;;;;;;10290041;28;20252;-80
2022/04/12 01:31:27;;;;;;;30.50;14.80;;;0.40;99.90;;;;;;10303919;28;20206;-81
2022/04/12 01:36:48;;;;;;;30.70;14.43;;;0.30;99.90;;;;;;10337231;28;20254;-79
2022/04/12 01:42:10;;;;;;;30.40;15.00;;;0.30;99.90;;;;;;10357975;28;20219;-79
2022/04/12 01:47:31;;;;;;;24.07;14.00;;;0.20;99.90;;;;;;10344342;28;20208;-78
2022/04/12 01:52:53;;;;;;;27.27;14.33;;;0.20;99.90;;;;;;10372819;28;20278;-79
2022/04/12 01:58:14;;;;;;;24.13;12.53;;;0.30;99.90;;;;;;10372637;28;20225;-79
2022/04/12 02:03:36;;;;;;;19.60;11.93;;;0.20;99.90;;;;;;10372444;28;20387;-79
2022/04/12 02:08:57;;;;;;;29.53;15.00;;;0.20;99.90;;;;;;10326441;28;20191;-79
2022/04/12 02:14:18;;;;;;;33.60;16.63;;;0.30;99.90;;;;;;10329475;28;20222;-79
2022/04/12 02:19:39;;;;;;;28.97;14.67;;;0.30;99.90;;;;;;10329215;28;20231;-81
2022/04/12 02:25:01;;;;;;;29.67;12.93;;;0.20;99.90;;;;;;10316356;28;20206;-80
2022/04/12 02:30:23;;;;;;;21.03;11.67;;;0.20;99.90;;;;;;10314490;28;20204;-80
2022/04/12 02:35:44;;;;;;;20.17;11.00;;;0.20;99.90;;;;;;10314015;28;20430;-80
2022/04/12 02:41:05;;;;;;;19.67;10.80;;;0.10;99.90;;;;;;10354295;28;20493;-81
2022/04/12 02:46:26;;;;;;;18.53;9.63;;;0.10;99.90;;;;;;10355334;28;20222;-79
2022/04/12 02:51:48;;;;;;;19.03;9.67;;;0.00;99.90;;;;;;10357126;28;20202;-78
2022/04/12 02:57:09;;;;;;;18.77;9.93;;;0.00;99.90;;;;;;10355846;28;20480;-79
2022/04/12 03:02:30;;;;;;;16.87;9.40;;;0.00;99.90;;;;;;10370885;28;20197;-79
2022/04/12 03:07:52;;;;;;;16.37;9.07;;;0.00;99.90;;;;;;10332352;28;20194;-79
2022/04/12 03:13:13;;;;;;;17.10;10.17;;;0.00;99.90;;;;;;10286899;28;20253;-79
2022/04/12 03:18:34;;;;;;;17.90;9.80;;;0.00;99.90;;;;;;10300445;28;20194;-79
2022/04/12 03:23:55;;;;;;;17.73;10.10;;;-0.10;99.90;;;;;;10300547;28;20204;-79
2022/04/12 03:29:17;;;;;;;19.03;10.40;;;-0.10;99.90;;;;;;10300168;28;20194;-80
2022/04/12 03:34:40;;;;;;;22.43;11.03;;;-0.10;99.90;;;;;;10299151;28;20243;-79
2022/04/12 03:40:02;;;;;;;19.73;11.90;;;-0.10;99.90;;;;;;10315420;28;20205;-79
2022/04/12 03:45:24;;;;;;;24.77;11.77;;;-0.10;99.90;;;;;;10334833;28;20200;-79
2022/04/12 03:50:45;;;;;;;47.27;21.23;;;-0.10;99.90;;;;;;10336816;28;20423;-79
2022/04/12 03:56:07;;;;;;;47.13;20.70;;;-0.20;99.90;;;;;;10334788;28;20222;-79
2022/04/12 04:01:29;;;;;;;40.43;17.33;;;-0.20;99.90;;;;;;10314708;28;20275;-79
2022/04/12 04:06:50;;;;;;;34.87;17.50;;;-0.20;99.90;;;;;;10345080;28;20190;-78
2022/04/12 04:12:11;;;;;;;43.03;20.07;;;-0.20;99.90;;;;;;10320535;28;20207;-79
2022/04/12 04:17:32;;;;;;;41.90;20.73;;;-0.20;99.90;;;;;;10319942;28;20211;-78
2022/04/12 04:22:54;;;;;;;32.57;17.83;;;-0.20;99.90;;;;;;10292407;28;20207;-77
2022/04/12 04:28:21;;;;;;;36.53;19.40;;;-0.20;99.90;;;;;;10321223;28;20394;-79
2022/04/12 04:33:42;;;;;;;37.80;18.23;;;-0.20;99.90;;;;;;10318941;28;20244;-78
2022/04/12 04:39:03;;;;;;;39.53;20.60;;;-0.20;99.90;;;;;;10328216;28;20227;-80
2022/04/12 04:44:24;;;;;;;36.97;19.60;;;-0.10;99.90;;;;;;10360216;28;20273;-79
2022/04/12 04:49:46;;;;;;;40.83;21.53;;;-0.10;99.90;;;;;;10359067;28;20250;-81
2022/04/12 04:55:08;;;;;;;46.53;22.57;;;0.00;99.90;;;;;;10374295;28;20234;-79
2022/04/12 05:00:31;;;;;;;75.57;33.37;;;0.10;99.90;;;;;;10374379;28;20400;-78
2022/04/12 05:05:53;;;;;;;71.97;35.30;;;0.30;99.90;;;;;;10363555;28;20203;-78
2022/04/12 05:11:14;;;;;;;52.30;26.33;;;0.40;99.90;;;;;;10333983;28;20200;-80
2022/04/12 05:16:35;;;;;;;67.07;34.17;;;0.70;99.90;;;;;;10303671;28;20425;-78
2022/04/12 05:21:56;;;;;;;73.87;38.53;;;0.70;99.90;;;;;;10303771;28;20243;-79
2022/04/12 05:27:18;;;;;;;62.23;33.17;;;0.80;99.90;;;;;;10303633;28;20526;-82
2022/04/12 05:32:40;;;;;;;48.27;23.07;;;1.00;99.90;;;;;;10317202;28;20216;-78
2022/04/12 05:38:04;;;;;;;27.13;12.63;;;1.30;99.90;;;;;;10337840;28;20203;-85
2022/04/12 05:43:25;;;;;;;16.23;7.73;;;1.70;99.90;;;;;;10373132;28;20424;-79
2022/04/12 05:48:46;;;;;;;13.37;5.30;;;2.00;99.90;;;;;;10358031;28;20197;-79
2022/04/12 05:54:08;;;;;;;17.03;6.20;;;2.30;99.90;;;;;;10373609;28;20252;-84
2022/04/12 05:59:29;;;;;;;16.87;5.00;;;2.50;99.90;;;;;;10357924;28;20501;-84
2022/04/12 06:04:50;;;;;;;14.73;5.93;;;2.70;99.90;;;;;;10353840;28;20202;-78
2022/04/12 06:10:13;;;;;;;12.57;5.80;;;3.00;99.90;;;;;;10302225;28;20563;-78
2022/04/12 06:15:34;;;;;;;17.60;6.53;;;3.20;99.90;;;;;;10288487;28;20304;-83
2022/04/12 06:20:58;;;;;;;16.13;5.40;;;3.50;99.90;;;;;;10316752;28;20516;-80
2022/04/12 06:26:20;;;;;;;11.97;5.83;;;4.80;99.90;;;;;;10316211;28;20401;-80
2022/04/12 06:31:42;;;;;;;12.40;5.60;;;6.90;99.90;;;;;;10315465;28;20200;-86
2022/04/12 06:37:04;;;;;;;14.87;4.97;;;8.70;99.90;;;;;;10313912;28;20251;-81
2022/04/12 06:42:26;;;;;;;11.23;4.50;;;10.10;99.90;;;;;;10367689;28;20217;-80
2022/04/12 06:47:59;;;;;;;10.47;3.50;;;11.10;99.90;;;;;;10314229;28;20277;-80
2022/04/12 06:53:23;;;;;;;8.90;3.20;;;11.80;96.10;;;;;;10300461;28;20237;-79
2022/04/12 06:58:44;;;;;;;11.30;3.60;;;12.10;94.00;;;;;;10295860;28;20233;-77
2022/04/12 07:04:06;;;;;;;14.20;4.00;;;12.60;91.40;;;;;;10358674;28;20236;-79
2022/04/12 07:09:28;;;;;;;7.82;3.45;;;13.00;84.80;;;;;;10282968;28;20192;-80
2022/04/12 07:14:51;;;;;;;8.90;3.65;;;13.60;71.70;;;;;;10265038;28;20246;-83
2022/04/12 07:20:13;;;;;;;6.43;2.47;;;13.90;59.70;;;;;;10334539;28;20470;-85
2022/04/12 07:25:35;;;;;;;7.43;2.85;;;14.20;54.20;;;;;;10303236;28;20470;-81
2022/04/12 07:30:56;;;;;;;8.27;3.33;;;14.30;48.60;;;;;;10304342;28;20215;-80
2022/04/12 07:36:20;;;;;;;8.43;2.97;;;14.60;46.00;;;;;;10333698;28;20287;-78
2022/04/12 07:41:41;;;;;;;8.15;2.90;;;15.00;40.70;;;;;;10333071;28;20202;-79
2022/04/12 07:47:03;;;;;;;14.07;4.70;;;15.30;38.00;;;;;;10329615;28;20568;-79
2022/04/12 07:52:25;;;;;;;7.80;3.00;;;;;;;;;;10315464;28;20209;-78
2022/04/12 07:57:46;;;;;;;4.50;2.20;;;15.90;29.50;;;;;;10331764;28;20210;-87
2022/04/12 08:03:07;;;;;;;5.88;2.53;;;16.40;26.80;;;;;;10330754;28;20239;-90
2022/04/12 08:08:29;;;;;;;6.05;2.20;;;16.70;23.70;;;;;;10314913;28;20489;-79
2022/04/12 08:13:50;;;;;;;5.28;2.13;;;17.00;24.20;;;;;;10317624;28;20232;-80
2022/04/12 08:19:12;;;;;;;6.53;2.00;;;17.50;23.40;;;;;;10315974;28;20405;-78
2022/04/12 08:24:33;;;;;;;5.20;2.67;;;17.80;21.90;;;;;;10331331;28;20249;-77
2022/04/12 08:29:55;;;;;;;2.90;1.50;;;18.40;21.50;;;;;;10314719;28;20217;-84
2022/04/12 08:35:17;;;;;;;9.27;1.98;;;18.40;20.80;;;;;;10329350;28;20234;-82
2022/04/12 08:40:40;;;;;;;5.57;2.67;;;18.60;20.60;;;;;;10334571;28;20414;-79
2022/04/12 08:46:02;;;;;;;4.57;2.70;;;19.20;19.80;;;;;;10349097;28;20203;-89
2022/04/12 08:51:27;;;;;;;5.72;1.88;;;19.60;19.20;;;;;;10318137;28;20277;-80
2022/04/12 08:56:50;;;;;;;7.88;3.08;;;19.60;19.40;;;;;;10331279;28;20241;-82
2022/04/12 09:02:12;;;;;;;5.13;1.95;;;19.80;19.10;;;;;;10331898;28;20215;-79
2022/04/12 09:07:45;;;;;;;4.75;1.85;;;19.90;18.30;;;;;;10338561;28;20202;-82
2022/04/12 09:13:11;;;;;;;4.80;2.15;;;20.20;17.20;;;;;;10348648;28;20222;-80
2022/04/12 09:18:51;;;;;;;3.33;1.85;;;20.50;17.00;;;;;;10349179;28;20392;-78
2022/04/12 09:24:22;;;;;;;6.78;2.05;;;21.00;16.30;;;;;;10317831;28;20234;-85
2022/04/12 09:29:52;;;;;;;4.25;1.92;;;21.50;15.70;;;;;;10336189;28;20190;-87
2022/04/12 09:35:14;;;;;;;3.63;1.50;;;21.30;14.80;;;;;;10350569;28;20389;-84
2022/04/12 09:40:35;;;;;;;2.65;1.42;;;21.70;14.30;;;;;;10321293;28;20218;-79
2022/04/12 09:46:06;;;;;;;4.15;1.67;;;21.50;13.70;;;;;;10346967;28;20185;-86
2022/04/12 09:51:29;;;;;;;6.00;1.45;;;21.50;13.70;;;;;;10336576;28;20552;-79
2022/04/12 09:56:53;;;;;;;3.65;2.40;;;21.50;12.90;;;;;;10322559;28;20263;-83
2022/04/12 10:02:16;;;;;;;4.20;1.33;;;21.30;13.50;;;;;;10324878;28;20241;-80
2022/04/12 10:07:38;;;;;;;2.85;1.50;;;21.70;13.20;;;;;;10341854;28;20217;-88
2022/04/12 10:13:05;;;;;;;4.20;1.90;;;21.80;12.50;;;;;;10354555;28;20295;-87
2022/04/12 10:18:28;;;;;;;3.85;1.40;;;21.70;12.60;;;;;;10331277;28;20558;-88
2022/04/12 10:23:55;;;;;;;3.30;1.35;;;22.00;11.90;;;;;;10364757;28;20193;-77
2022/04/12 10:29:17;;;;;;;2.67;1.08;;;22.00;12.10;;;;;;10359758;28;20190;-89
2022/04/12 10:34:59;;;;;;;4.07;1.35;;;22.20;11.50;;;;;;10354041;28;20229;-89
2022/04/12 10:40:21;;;;;;;3.88;1.40;;;22.30;11.10;;;;;;10342840;28;20197;-87
2022/04/12 10:45:47;;;;;;;4.70;2.08;;;22.40;10.80;;;;;;10385544;28;20276;-78
2022/04/12 10:51:08;;;;;;;3.88;1.95;;;22.50;11.40;;;;;;10361747;28;20257;-81
2022/04/12 10:56:29;;;;;;;3.53;1.30;;;22.30;10.60;;;;;;10361474;28;20503;-83
2022/04/12 11:01:51;;;;;;;3.25;1.70;;;22.20;10.80;;;;;;10377790;28;20204;-77
2022/04/12 11:07:31;;;;;;;6.18;3.83;;;22.00;10.60;;;;;;10355961;28;20193;-87
2022/04/12 11:13:09;;;;;;;6.45;1.42;;;21.50;11.10;;;;;;10344306;28;20229;-81
2022/04/12 11:18:49;;;;;;;3.00;1.90;;;22.00;11.70;;;;;;10386042;28;20205;-80
2022/04/12 11:24:12;;;;;;;5.57;2.20;;;22.50;9.60;;;;;;10353984;28;20198;-80
2022/04/12 11:29:34;;;;;;;3.15;1.70;;;22.50;9.40;;;;;;10355550;28;20208;-81
2022/04/12 11:34:57;;;;;;;3.13;0.95;;;22.50;10.10;;;;;;10376373;28;20249;-87
2022/04/12 11:40:18;;;;;;;3.08;1.70;;;22.50;10.00;;;;;;10360055;28;20202;-80
2022/04/12 11:45:43;;;;;;;4.22;1.67;;;22.60;9.60;;;;;;10352033;28;20229;-82
2022/04/12 11:51:06;;;;;;;4.57;1.58;;;22.50;10.50;;;;;;10366324;28;20194;-82
2022/04/12 11:56:28;;;;;;;4.70;1.88;;;22.50;10.10;;;;;;10367442;28;20418;-86
2022/04/12 12:01:51;;;;;;;3.65;1.88;;;22.60;10.20;;;;;;10356589;28;20198;-81
2022/04/12 12:07:14;;;;;;;5.15;3.70;;;22.50;10.20;;;;;;10358498;28;20194;-83
2022/04/12 12:12:42;;;;;;;3.45;1.92;;;21.70;10.20;;;;;;10368222;28;20229;-85
2022/04/12 12:18:08;;;;;;;4.07;1.75;;;21.60;11.20;;;;;;10360538;28;20190;-80
2022/04/12 12:23:29;;;;;;;8.05;3.30;;;21.90;10.90;;;;;;10346118;28;20236;-82
2022/04/12 12:28:56;;;;;;;9.40;5.05;;;21.70;11.50;;;;;;10353690;28;20300;-88
2022/04/12 12:34:34;;;;;;;4.55;1.80;;;21.70;11.50;;;;;;10358551;28;20279;-85
2022/04/12 12:39:54;;;;;;;5.07;1.92;;;21.30;11.60;;;;;;10343599;28;20202;-84
2022/04/12 12:45:24;;;;;;;4.80;2.63;;;20.80;11.40;;;;;;10358448;28;20212;-81
2022/04/12 12:50:46;;;;;;;6.85;1.70;;;20.60;12.60;;;;;;10368136;28;20202;-86
2022/04/12 12:56:17;;;;;;;3.72;1.92;;;20.70;12.40;;;;;;10347891;28;20557;-85
2022/04/12 13:01:49;;;;;;;4.88;2.90;;;20.50;12.20;;;;;;10378617;28;20301;-79
2022/04/12 13:07:13;;;;;;;6.68;2.10;;;20.70;12.50;;;;;;10374348;28;20488;-81
2022/04/12 13:12:35;;;;;;;9.25;2.45;;;20.50;12.60;;;;;;10369802;28;20496;-79
2022/04/12 13:17:56;;;;;;;4.45;2.25;;;20.10;12.30;;;;;;10349507;28;20431;-80
2022/04/12 13:23:18;;;;;;;2.88;1.65;;;19.60;13.20;;;;;;10375123;28;20281;-82
2022/04/12 13:28:39;;;;;;;3.65;1.80;;;19.50;13.60;;;;;;10367206;28;20268;-84
2022/04/12 13:34:00;;;;;;;6.07;2.20;;;19.20;13.70;;;;;;10353785;28;20229;-82
2022/04/12 13:39:22;;;;;;;3.70;1.95;;;18.90;14.10;;;;;;10351590;28;20478;-80
2022/04/12 13:44:43;;;;;;;4.50;2.13;;;18.70;14.50;;;;;;10374902;28;20199;-81
2022/04/12 13:50:06;;;;;;;4.45;2.17;;;18.50;14.70;;;;;;10353242;28;20202;-81
2022/04/12 13:55:28;;;;;;;4.20;2.72;;;18.50;15.00;;;;;;10381249;28;20228;-79
2022/04/12 14:00:49;;;;;;;4.55;1.85;;;18.00;14.90;;;;;;10388486;28;20273;-82
2022/04/12 14:06:10;;;;;;;2.80;1.63;;;17.90;15.60;;;;;;10364985;28;20244;-82
2022/04/12 14:11:32;;;;;;;4.32;1.90;;;17.40;15.40;;;;;;10370129;28;20272;-78
2022/04/12 14:16:55;;;;;;;2.95;1.63;;;17.20;15.60;;;;;;10336435;28;20260;-79
2022/04/12 14:22:16;;;;;;;2.80;1.67;;;16.80;15.60;;;;;;10354539;28;20481;-81
2022/04/12 14:27:37;;;;;;;4.53;1.80;;;16.70;16.10;;;;;;10355401;28;20503;-80
2022/04/12 14:32:59;;;;;;;2.63;1.20;;;16.40;16.20;;;;;;10373690;28;20198;-80
2022/04/12 14:38:24;;;;;;;2.80;1.73;;;16.30;16.40;;;;;;10367260;28;20514;-77
2022/04/12 14:43:46;;;;;;;4.90;1.90;;;16.20;16.40;;;;;;10354549;28;20246;-78
2022/04/12 14:49:07;;;;;;;5.45;2.28;;;16.00;16.30;;;;;;10353809;28;20221;-82
2022/04/12 14:54:28;;;;;;;8.85;5.07;;;16.00;16.80;;;;;;10363000;28;20267;-84
2022/04/12 14:59:49;;;;;;;4.85;2.70;;;16.00;17.10;;;;;;10366610;28;20251;-81
2022/04/12 15:05:11;;;;;;;3.00;1.70;;;15.70;16.60;;;;;;10356523;28;20208;-85
2022/04/12 15:10:33;;;;;;;3.83;1.75;;;15.50;17.00;;;;;;10365884;28;20247;-92
2022/04/12 15:15:54;;;;;;;2.90;1.38;;;15.40;17.30;;;;;;10322072;28;20476;-82
2022/04/12 15:21:16;;;;;;;4.88;2.17;;;15.40;17.90;;;;;;10339868;28;20201;-83
2022/04/12 15:26:37;;;;;;;7.82;3.40;;;15.30;17.90;;;;;;10353659;28;20203;-79
2022/04/12 15:31:58;;;;;;;7.13;2.80;;;15.10;18.40;;;;;;10353913;28;20219;-79
2022/04/12 15:37:20;;;;;;;11.35;4.90;;;14.90;19.00;;;;;;10306187;28;20240;-80
2022/04/12 15:42:45;;;;;;;11.52;4.57;;;14.80;19.10;;;;;;10250581;28;20226;-79
2022/04/12 15:48:06;;;;;;;10.77;4.40;;;14.70;19.60;;;;;;10275151;28;20279;-79
2022/04/12 15:53:27;;;;;;;7.97;3.70;;;14.50;19.10;;;;;;10303551;28;20212;-79
2022/04/12 15:58:49;;;;;;;5.25;2.65;;;14.30;18.90;;;;;;10312907;28;20230;-79
2022/04/12 16:04:11;;;;;;;8.93;4.90;;;14.20;19.10;;;;;;10298026;28;20203;-80
2022/04/12 16:09:33;;;;;;;6.25;3.63;;;14.30;19.60;;;;;;10298473;28;20386;-78
2022/04/12 16:14:54;;;;;;;7.82;3.88;;;14.10;20.80;;;;;;10280127;29;20615;-80
2022/04/12 16:20:16;;;;;;;11.00;4.55;;;14.00;21.00;;;;;;10280875;28;20188;-80
2022/04/12 16:25:37;;;;;;;14.15;5.90;;;13.90;21.40;;;;;;10279322;28;20202;-79
2022/04/12 16:30:59;;;;;;;14.50;4.97;;;13.80;21.50;;;;;;10293545;28;20209;-81
2022/04/12 16:36:20;;;;;;;9.88;4.65;;;13.60;21.60;;;;;;10333804;28;20233;-83
2022/04/12 16:41:42;;;;;;;15.73;6.40;;;13.30;23.90;;;;;;10370268;28;20211;-79
2022/04/12 16:47:06;;;;;;;18.90;9.10;;;12.90;27.40;;;;;;10400806;28;20203;-82
2022/04/12 16:52:27;;;;;;;15.98;9.10;;;12.50;30.20;;;;;;10376319;28;20242;-79
2022/04/12 16:57:51;;;;;;;23.55;12.23;;;12.20;34.00;;;;;;10359986;28;20223;-79
2022/04/12 17:03:13;;;;;;;23.80;10.43;;;12.00;37.80;;;;;;10374151;28;20223;-82
2022/04/12 17:08:34;;;;;;;23.27;8.67;;;11.80;40.70;;;;;;10345280;28;20189;-79
2022/04/12 17:13:56;;;;;;;22.67;9.73;;;11.60;43.90;;;;;;10359489;28;20221;-79
2022/04/12 17:19:18;;;;;;;19.08;8.57;;;11.30;48.00;;;;;;10358925;28;20377;-80
2022/04/12 17:24:39;;;;;;;19.37;9.10;;;11.10;50.70;;;;;;10344249;28;20548;-80
2022/04/12 17:30:01;;;;;;;22.13;9.00;;;10.90;53.80;;;;;;10330923;28;20407;-80
2022/04/12 17:35:22;;;;;;;14.83;7.73;;;10.80;54.40;;;;;;10329716;28;20243;-78
2022/04/12 17:40:43;;;;;;;16.67;8.57;;;10.60;54.90;;;;;;10342761;28;20205;-79
2022/04/12 17:46:05;;;;;;;16.83;8.93;;;;;;;;;;10316970;28;20428;-78
2022/04/12 17:51:26;;;;;;;22.90;11.47;;;10.00;59.40;;;;;;10318188;28;20394;-79
2022/04/12 17:56:48;;;;;;;29.63;12.73;;;9.90;60.70;;;;;;10339730;28;20259;-79
2022/04/12 18:02:10;;;;;;;26.33;12.00;;;9.70;63.40;;;;;;10362822;28;20199;-81
2022/04/12 18:07:33;;;;;;;19.00;10.80;;;9.50;65.90;;;;;;10343024;28;20203;-79
2022/04/12 18:12:55;;;;;;;27.47;12.93;;;9.50;67.90;;;;;;10342813;28;20196;-80
2022/04/12 18:18:17;;;;;;;22.50;12.43;;;9.30;70.30;;;;;;10356600;28;20230;-78
2022/04/12 18:23:39;;;;;;;29.00;13.70;;;9.20;74.20;;;;;;10356689;28;20196;-79
2022/04/12 18:29:00;;;;;;;28.87;13.67;;;9.20;75.10;;;;;;10325391;28;20200;-79
2022/04/12 18:34:21;;;;;;;25.27;13.03;;;9.00;76.20;;;;;;10356039;28;20424;-81
2022/04/12 18:39:46;;;;;;;22.70;12.30;;;8.90;74.90;;;;;;10363157;28;20279;-78
2022/04/12 18:45:10;;;;;;;23.93;12.97;;;8.80;74.70;;;;;;10314749;28;20196;-78
2022/04/12 18:50:32;;;;;;;20.87;10.27;;;8.70;72.40;;;;;;10319219;28;20206;-78
2022/04/12 18:55:53;;;;;;;25.00;11.13;;;8.50;62.10;;;;;;10355430;28;20224;-78
2022/04/12 19:01:15;;;;;;;23.13;11.03;;;8.40;58.30;;;;;;10361665;28;20210;-80
2022/04/12 19:06:36;;;;;;;19.20;8.03;;;8.30;57.30;;;;;;10381470;28;20194;-80
2022/04/12 19:11:58;;;;;;;15.37;7.67;;;8.20;54.60;;;;;;10402972;28;20203;-80
2022/04/12 19:17:19;;;;;;;16.10;9.77;;;7.90;54.70;;;;;;10394342;28;20231;-80
2022/04/12 19:22:41;;;;;;;22.00;12.40;;;7.90;55.50;;;;;;10390473;28;20512;-81
2022/04/12 19:28:03;;;;;;;23.20;11.77;;;7.90;55.70;;;;;;10354147;28;20245;-79
2022/04/12 19:33:25;;;;;;;21.47;9.50;;;7.80;55.40;;;;;;10353379;28;20226;-78
2022/04/12 19:38:46;;;;;;;19.70;10.10;;;7.80;55.00;;;;;;10360016;28;20215;-78
2022/04/12 19:44:07;;;;;;;21.83;9.17;;;7.70;55.40;;;;;;10330528;28;20200;-80
2022/04/12 19:49:29;;;;;;;23.00;11.10;;;7.60;55.90;;;;;;10327789;28;20499;-78
2022/04/12 19:54:50;;;;;;;21.60;12.03;;;7.50;56.30;;;;;;10367058;28;20472;-79
2022/04/12 20:00:14;;;;;;;28.03;13.00;;;7.50;57.60;;;;;;10336876;28;20199;-81
2022/04/12 20:05:36;;;;;;;32.67;13.90;;;7.40;57.70;;;;;;10368064;28;20207;-79
2022/04/12 20:10:57;;;;;;;39.17;17.60;;;7.40;58.00;;;;;;10366690;28;20288;-78
2022/04/12 20:16:18;;;;;;;44.50;21.60;;;7.20;60.30;;;;;;10366576;28;20524;-80
2022/04/12 20:21:39;;;;;;;40.03;19.90;;;7.00;63.40;;;;;;10351172;28;20198;-80
2022/04/12 20:27:01;;;;;;;36.07;18.03;;;7.00;64.10;;;;;;10346799;28;20192;-79
2022/04/12 20:32:22;;;;;;;28.80;14.77;;;7.00;66.30;;;;;;10361261;28;20211;-79
2022/04/12 20:37:44;;;;;;;36.53;18.30;;;6.90;68.40;;;;;;10363328;28;20231;-80
2022/04/12 20:43:05;;;;;;;39.60;19.37;;;6.90;71.60;;;;;;10377561;28;20202;-79
2022/04/12 20:48:27;;;;;;;41.60;19.63;;;6.90;75.00;;;;;;10360112;28;20200;-78
2022/04/12 20:53:48;;;;;;;47.77;20.00;;;6.80;76.70;;;;;;10357518;28;20374;-80
2022/04/12 20:59:09;;;;;;;40.07;21.17;;;6.80;77.20;;;;;;10358792;28;20235;-79
2022/04/12 21:04:31;;;;;;;34.40;18.87;;;6.70;78.50;;;;;;10392636;28;20190;-82
2022/04/12 21:09:52;;;;;;;33.97;16.37;;;6.70;81.60;;;;;;10400652;28;20186;-80
2022/04/12 21:15:14;;;;;;;35.97;15.70;;;6.60;83.90;;;;;;10399488;28;20218;-79
2022/04/12 21:20:36;;;;;;;38.40;16.97;;;6.70;85.40;;;;;;10396926;28;20195;-79
2022/04/12 21:25:58;;;;;;;38.27;18.20;;;6.70;86.20;;;;;;10357832;28;20201;-78
2022/04/12 21:31:21;;;;;;;38.43;18.40;;;6.70;88.10;;;;;;10344142;28;20244;-78
2022/04/12 21:36:43;;;;;;;36.53;18.77;;;6.70;88.50;;;;;;10343559;28;20235;-78
2022/04/12 21:42:05;;;;;;;40.90;20.60;;;6.70;90.20;;;;;;10335689;28;20541;-78
2022/04/12 21:47:26;;;;;;;40.23;17.60;;;6.60;91.40;;;;;;10317959;28;20204;-78
2022/04/12 21:52:48;;;;;;;45.40;18.40;;;6.60;92.40;;;;;;10342702;28;20425;-78
2022/04/12 21:58:09;;;;;;;40.23;17.70;;;6.60;92.70;;;;;;10357493;28;20222;-81
2022/04/12 22:03:30;;;;;;;36.17;16.33;;;6.50;93.40;;;;;;10364501;28;20197;-80
2022/04/12 22:08:52;;;;;;;35.00;15.73;;;6.60;94.10;;;;;;10397576;28;20279;-81
2022/04/12 22:14:13;;;;;;;29.40;15.30;;;6.60;94.50;;;;;;10397725;28;20191;-78
2022/04/12 22:19:35;;;;;;;28.40;14.13;;;6.50;95.70;;;;;;10396507;28;20307;-81
2022/04/12 22:24:56;;;;;;;36.30;18.23;;;6.50;96.10;;;;;;10356964;28;20246;-80
2022/04/12 22:30:17;;;;;;;45.27;21.10;;;6.40;96.70;;;;;;10355606;28;20201;-78
2022/04/12 22:35:39;;;;;;;54.73;23.93;;;6.40;97.00;;;;;;10356020;28;20315;-81
2022/04/12 22:41:00;;;;;;;58.30;25.70;;;6.10;99.10;;;;;;10342279;28;20201;-80
2022/04/12 22:46:21;;;;;;;56.70;24.07;;;5.90;99.40;;;;;;10313996;28;20284;-79
2022/04/12 22:51:43;;;;;;;57.50;25.23;;;5.90;99.90;;;;;;10318691;28;20201;-81
2022/04/12 22:57:04;;;;;;;52.00;23.57;;;5.80;99.90;;;;;;10354504;28;20305;-82
2022/04/12 23:02:25;;;;;;;54.57;24.47;;;5.80;99.90;;;;;;10356870;28;20404;-79
2022/04/12 23:07:46;;;;;;;53.57;21.83;;;5.70;99.90;;;;;;10395796;28;20192;-79
2022/04/12 23:13:08;;;;;;;46.50;20.87;;;;;;;;;;10381221;28;20219;-80
2022/04/12 23:18:29;;;;;;;52.93;21.40;;;5.50;99.90;;;;;;10395897;28;20246;-78
2022/04/12 23:23:54;;;;;;;43.53;18.37;;;5.50;99.90;;;;;;10362460;28;20194;-79
2022/04/12 23:29:16;;;;;;;39.33;17.60;;;;;;;;;;10355003;28;20234;-78
2022/04/12 23:34:37;;;;;;;40.80;18.20;;;5.40;99.90;;;;;;10340130;28;20242;-81
2022/04/12 23:40:00;;;;;;;42.87;19.67;;;5.30;99.90;;;;;;10347796;28;20216;-81
2022/04/12 23:45:21;;;;;;;37.20;16.03;;;5.30;99.90;;;;;;10313327;28;20221;-78
2022/04/12 23:50:42;;;;;;;39.67;16.77;;;5.30;99.90;;;;;;10323093;28;20263;-79
2022/04/12 23:56:04;;;;;;;44.93;21.13;;;5.20;99.90;;;;;;10353457;28;20241;-78
